sensor_id;sensor_type;location;lat;lon;timestamp;P1;durP1;ratioP1;P2;durP2;ratioP2
73980;SDS011;62348;51.412;5.436;2023-07-20T00:01:06;8.40;;;4.57;;
73980;SDS011;62348;51.412;5.436;2023-07-20T00:03:32;8.15;;;5.20;;
73980;SDS011;62348;51.412;5.436;2023-07-20T00:05:57;6.18;;;4.13;;
73980;SDS011;62348;51.412;5.436;2023-07-20T00:08:23;7.07;;;4.78;;
73980;SDS011;62348;51.412;5.436;2023-07-20T00:10:49;6.38;;;4.63;;
73980;SDS011;62348;51.412;5.436;2023-07-20T00:13:14;8.55;;;4.93;;
73980;SDS011;62348;51.412;5.436;2023-07-20T00:15:41;6.93;;;4.90;;
73980;SDS011;62348;51.412;5.436;2023-07-20T00:18:06;9.27;;;4.85;;
73980;SDS011;62348;51.412;5.436;2023-07-20T00:20:32;6.05;;;4.90;;
73980;SDS011;62348;51.412;5.436;2023-07-20T00:22:57;10.93;;;5.38;;
73980;SDS011;62348;51.412;5.436;2023-07-20T00:25:23;9.60;;;4.97;;
73980;SDS011;62348;51.412;5.436;2023-07-20T00:27:49;11.00;;;4.97;;
73980;SDS011;62348;51.412;5.436;2023-07-20T00:30:15;9.70;;;5.30;;
73980;SDS011;62348;51.412;5.436;2023-07-20T00:32:42;9.13;;;5.30;;
73980;SDS011;62348;51.412;5.436;2023-07-20T00:35:08;8.90;;;4.78;;
73980;SDS011;62348;51.412;5.436;2023-07-20T00:37:33;8.55;;;5.35;;
73980;SDS011;62348;51.412;5.436;2023-07-20T00:39:59;7.13;;;5.55;;
73980;SDS011;62348;51.412;5.436;2023-07-20T00:42:24;6.78;;;4.88;;
73980;SDS011;62348;51.412;5.436;2023-07-20T00:44:50;8.10;;;4.88;;
73980;SDS011;62348;51.412;5.436;2023-07-20T00:47:15;7.43;;;5.43;;
73980;SDS011;62348;51.412;5.436;2023-07-20T00:49:40;8.10;;;5.55;;
73980;SDS011;62348;51.412;5.436;2023-07-20T00:52:06;7.85;;;5.28;;
73980;SDS011;62348;51.412;5.436;2023-07-20T00:54:33;8.48;;;4.78;;
73980;SDS011;62348;51.412;5.436;2023-07-20T00:57:00;7.93;;;5.65;;
73980;SDS011;62348;51.412;5.436;2023-07-20T00:59:26;12.10;;;4.85;;
73980;SDS011;62348;51.412;5.436;2023-07-20T01:01:52;8.57;;;5.25;;
73980;SDS011;62348;51.412;5.436;2023-07-20T01:04:18;8.13;;;5.30;;
73980;SDS011;62348;51.412;5.436;2023-07-20T01:09:24;8.48;;;5.80;;
73980;SDS011;62348;51.412;5.436;2023-07-20T01:12:02;8.13;;;5.38;;
73980;SDS011;62348;51.412;5.436;2023-07-20T01:14:32;28.92;;;6.75;;
73980;SDS011;62348;51.412;5.436;2023-07-20T01:16:59;10.45;;;5.72;;
73980;SDS011;62348;51.412;5.436;2023-07-20T01:19:25;8.75;;;5.10;;
73980;SDS011;62348;51.412;5.436;2023-07-20T01:21:55;9.35;;;5.85;;
73980;SDS011;62348;51.412;5.436;2023-07-20T01:32:31;7.65;;;5.07;;
73980;SDS011;62348;51.412;5.436;2023-07-20T01:34:56;10.30;;;4.90;;
73980;SDS011;62348;51.412;5.436;2023-07-20T01:37:24;8.85;;;5.07;;
73980;SDS011;62348;51.412;5.436;2023-07-20T01:39:54;8.23;;;5.03;;
73980;SDS011;62348;51.412;5.436;2023-07-20T01:42:21;7.55;;;4.85;;
73980;SDS011;62348;51.412;5.436;2023-07-20T01:44:50;9.98;;;5.60;;
73980;SDS011;62348;51.412;5.436;2023-07-20T01:47:17;12.60;;;6.30;;
73980;SDS011;62348;51.412;5.436;2023-07-20T01:49:42;12.80;;;6.63;;
73980;SDS011;62348;51.412;5.436;2023-07-20T01:52:08;9.73;;;6.03;;
73980;SDS011;62348;51.412;5.436;2023-07-20T01:54:33;12.88;;;6.07;;
73980;SDS011;62348;51.412;5.436;2023-07-20T01:56:59;10.30;;;6.30;;
73980;SDS011;62348;51.412;5.436;2023-07-20T01:59:24;10.23;;;6.15;;
73980;SDS011;62348;51.412;5.436;2023-07-20T02:01:49;8.95;;;6.43;;
73980;SDS011;62348;51.412;5.436;2023-07-20T02:04:15;7.90;;;6.20;;
73980;SDS011;62348;51.412;5.436;2023-07-20T02:06:40;11.57;;;7.03;;
73980;SDS011;62348;51.412;5.436;2023-07-20T02:09:06;13.93;;;6.82;;
73980;SDS011;62348;51.412;5.436;2023-07-20T02:11:31;9.70;;;6.97;;
73980;SDS011;62348;51.412;5.436;2023-07-20T02:13:56;11.65;;;7.05;;
73980;SDS011;62348;51.412;5.436;2023-07-20T02:16:22;12.15;;;7.38;;
73980;SDS011;62348;51.412;5.436;2023-07-20T02:18:47;10.38;;;8.18;;
73980;SDS011;62348;51.412;5.436;2023-07-20T02:21:13;12.30;;;8.20;;
73980;SDS011;62348;51.412;5.436;2023-07-20T02:23:38;15.00;;;7.60;;
73980;SDS011;62348;51.412;5.436;2023-07-20T02:26:03;10.52;;;6.80;;
73980;SDS011;62348;51.412;5.436;2023-07-20T02:28:29;14.30;;;7.50;;
73980;SDS011;62348;51.412;5.436;2023-07-20T02:30:54;10.07;;;7.47;;
73980;SDS011;62348;51.412;5.436;2023-07-20T02:33:19;10.80;;;7.68;;
73980;SDS011;62348;51.412;5.436;2023-07-20T02:35:45;11.43;;;8.23;;
73980;SDS011;62348;51.412;5.436;2023-07-20T02:38:11;10.27;;;7.97;;
73980;SDS011;62348;51.412;5.436;2023-07-20T02:40:36;13.68;;;8.35;;
73980;SDS011;62348;51.412;5.436;2023-07-20T02:43:02;13.15;;;8.70;;
73980;SDS011;62348;51.412;5.436;2023-07-20T02:45:27;13.45;;;9.02;;
73980;SDS011;62348;51.412;5.436;2023-07-20T02:47:52;15.75;;;9.25;;
73980;SDS011;62348;51.412;5.436;2023-07-20T02:50:18;19.98;;;8.95;;
73980;SDS011;62348;51.412;5.436;2023-07-20T02:52:43;15.23;;;9.57;;
73980;SDS011;62348;51.412;5.436;2023-07-20T02:55:09;16.70;;;9.50;;
73980;SDS011;62348;51.412;5.436;2023-07-20T02:57:34;14.50;;;10.45;;
73980;SDS011;62348;51.412;5.436;2023-07-20T03:00:01;13.65;;;10.73;;
73980;SDS011;62348;51.412;5.436;2023-07-20T03:02:29;19.83;;;12.35;;
73980;SDS011;62348;51.412;5.436;2023-07-20T03:04:55;16.30;;;11.07;;
73980;SDS011;62348;51.412;5.436;2023-07-20T03:07:22;17.52;;;10.27;;
73980;SDS011;62348;51.412;5.436;2023-07-20T03:09:47;17.38;;;11.68;;
73980;SDS011;62348;51.412;5.436;2023-07-20T03:12:13;15.00;;;10.82;;
73980;SDS011;62348;51.412;5.436;2023-07-20T03:14:38;14.05;;;10.90;;
73980;SDS011;62348;51.412;5.436;2023-07-20T03:17:04;17.95;;;10.60;;
73980;SDS011;62348;51.412;5.436;2023-07-20T03:19:29;15.75;;;10.80;;
73980;SDS011;62348;51.412;5.436;2023-07-20T03:21:55;14.98;;;11.45;;
73980;SDS011;62348;51.412;5.436;2023-07-20T03:24:20;17.15;;;12.02;;
73980;SDS011;62348;51.412;5.436;2023-07-20T03:26:46;17.85;;;11.48;;
73980;SDS011;62348;51.412;5.436;2023-07-20T03:29:11;17.58;;;12.00;;
73980;SDS011;62348;51.412;5.436;2023-07-20T03:31:36;17.30;;;11.63;;
73980;SDS011;62348;51.412;5.436;2023-07-20T03:34:02;17.50;;;12.18;;
73980;SDS011;62348;51.412;5.436;2023-07-20T03:36:27;19.50;;;12.75;;
73980;SDS011;62348;51.412;5.436;2023-07-20T03:38:53;15.93;;;12.77;;
73980;SDS011;62348;51.412;5.436;2023-07-20T03:41:18;18.35;;;12.75;;
73980;SDS011;62348;51.412;5.436;2023-07-20T03:43:45;16.30;;;13.13;;
73980;SDS011;62348;51.412;5.436;2023-07-20T03:46:10;17.48;;;12.73;;
73980;SDS011;62348;51.412;5.436;2023-07-20T03:48:35;17.88;;;12.13;;
73980;SDS011;62348;51.412;5.436;2023-07-20T03:51:01;19.95;;;13.32;;
73980;SDS011;62348;51.412;5.436;2023-07-20T03:53:26;14.90;;;11.75;;
73980;SDS011;62348;51.412;5.436;2023-07-20T03:55:52;15.35;;;11.80;;
73980;SDS011;62348;51.412;5.436;2023-07-20T03:58:18;12.48;;;10.63;;
73980;SDS011;62348;51.412;5.436;2023-07-20T04:00:45;16.83;;;11.40;;
73980;SDS011;62348;51.412;5.436;2023-07-20T04:03:11;15.13;;;12.02;;
73980;SDS011;62348;51.412;5.436;2023-07-20T04:05:37;15.90;;;11.88;;
73980;SDS011;62348;51.412;5.436;2023-07-20T04:08:02;14.27;;;11.35;;
73980;SDS011;62348;51.412;5.436;2023-07-20T04:10:27;16.17;;;12.30;;
73980;SDS011;62348;51.412;5.436;2023-07-20T04:12:53;15.25;;;11.68;;
73980;SDS011;62348;51.412;5.436;2023-07-20T04:15:18;13.90;;;11.00;;
73980;SDS011;62348;51.412;5.436;2023-07-20T04:17:44;12.80;;;9.85;;
73980;SDS011;62348;51.412;5.436;2023-07-20T04:20:10;13.18;;;10.23;;
73980;SDS011;62348;51.412;5.436;2023-07-20T04:22:36;12.88;;;9.85;;
73980;SDS011;62348;51.412;5.436;2023-07-20T04:25:02;15.15;;;11.43;;
73980;SDS011;62348;51.412;5.436;2023-07-20T04:27:28;12.77;;;9.98;;
73980;SDS011;62348;51.412;5.436;2023-07-20T04:29:53;16.33;;;11.10;;
73980;SDS011;62348;51.412;5.436;2023-07-20T04:32:19;13.55;;;10.50;;
73980;SDS011;62348;51.412;5.436;2023-07-20T04:34:44;12.65;;;10.60;;
73980;SDS011;62348;51.412;5.436;2023-07-20T04:37:10;11.75;;;9.93;;
73980;SDS011;62348;51.412;5.436;2023-07-20T04:39:35;15.68;;;10.77;;
73980;SDS011;62348;51.412;5.436;2023-07-20T04:42:00;12.70;;;9.82;;
73980;SDS011;62348;51.412;5.436;2023-07-20T04:44:26;12.23;;;10.20;;
73980;SDS011;62348;51.412;5.436;2023-07-20T04:46:51;10.10;;;9.10;;
73980;SDS011;62348;51.412;5.436;2023-07-20T04:49:16;12.63;;;8.88;;
73980;SDS011;62348;51.412;5.436;2023-07-20T04:51:42;10.32;;;8.35;;
73980;SDS011;62348;51.412;5.436;2023-07-20T04:54:07;10.27;;;8.13;;
73980;SDS011;62348;51.412;5.436;2023-07-20T04:56:33;11.02;;;8.30;;
73980;SDS011;62348;51.412;5.436;2023-07-20T04:58:58;9.27;;;7.93;;
73980;SDS011;62348;51.412;5.436;2023-07-20T05:01:24;9.27;;;8.15;;
73980;SDS011;62348;51.412;5.436;2023-07-20T05:03:49;9.70;;;7.88;;
73980;SDS011;62348;51.412;5.436;2023-07-20T05:06:15;10.63;;;7.53;;
73980;SDS011;62348;51.412;5.436;2023-07-20T05:08:40;9.93;;;7.18;;
73980;SDS011;62348;51.412;5.436;2023-07-20T05:11:06;8.75;;;7.00;;
73980;SDS011;62348;51.412;5.436;2023-07-20T05:13:32;8.18;;;6.40;;
73980;SDS011;62348;51.412;5.436;2023-07-20T05:15:58;8.57;;;6.65;;
73980;SDS011;62348;51.412;5.436;2023-07-20T05:18:23;6.63;;;5.85;;
73980;SDS011;62348;51.412;5.436;2023-07-20T05:20:49;6.88;;;5.07;;
73980;SDS011;62348;51.412;5.436;2023-07-20T05:23:16;5.80;;;5.03;;
73980;SDS011;62348;51.412;5.436;2023-07-20T05:25:42;7.50;;;5.13;;
73980;SDS011;62348;51.412;5.436;2023-07-20T05:28:08;7.15;;;4.63;;
73980;SDS011;62348;51.412;5.436;2023-07-20T05:30:33;5.85;;;3.83;;
73980;SDS011;62348;51.412;5.436;2023-07-20T05:32:59;6.28;;;4.53;;
73980;SDS011;62348;51.412;5.436;2023-07-20T05:35:25;6.70;;;3.83;;
73980;SDS011;62348;51.412;5.436;2023-07-20T05:37:51;7.00;;;3.92;;
73980;SDS011;62348;51.412;5.436;2023-07-20T05:40:16;4.80;;;3.97;;
73980;SDS011;62348;51.412;5.436;2023-07-20T05:42:44;5.30;;;3.95;;
73980;SDS011;62348;51.412;5.436;2023-07-20T05:45:13;4.53;;;4.13;;
73980;SDS011;62348;51.412;5.436;2023-07-20T05:47:39;6.00;;;4.35;;
73980;SDS011;62348;51.412;5.436;2023-07-20T05:50:06;5.15;;;3.92;;
73980;SDS011;62348;51.412;5.436;2023-07-20T05:52:31;4.50;;;4.10;;
73980;SDS011;62348;51.412;5.436;2023-07-20T05:54:57;5.97;;;4.45;;
73980;SDS011;62348;51.412;5.436;2023-07-20T05:57:23;6.70;;;4.70;;
73980;SDS011;62348;51.412;5.436;2023-07-20T05:59:48;7.60;;;5.20;;
73980;SDS011;62348;51.412;5.436;2023-07-20T06:02:14;7.78;;;5.63;;
73980;SDS011;62348;51.412;5.436;2023-07-20T06:04:39;5.78;;;5.20;;
73980;SDS011;62348;51.412;5.436;2023-07-20T06:07:05;6.47;;;5.07;;
73980;SDS011;62348;51.412;5.436;2023-07-20T06:09:32;8.80;;;5.63;;
73980;SDS011;62348;51.412;5.436;2023-07-20T06:11:58;6.88;;;6.10;;
73980;SDS011;62348;51.412;5.436;2023-07-20T06:14:23;7.38;;;5.28;;
73980;SDS011;62348;51.412;5.436;2023-07-20T06:16:49;5.45;;;4.75;;
73980;SDS011;62348;51.412;5.436;2023-07-20T06:19:14;5.53;;;4.40;;
73980;SDS011;62348;51.412;5.436;2023-07-20T06:21:40;5.78;;;4.85;;
73980;SDS011;62348;51.412;5.436;2023-07-20T06:24:05;4.82;;;4.43;;
73980;SDS011;62348;51.412;5.436;2023-07-20T06:26:31;7.88;;;5.45;;
73980;SDS011;62348;51.412;5.436;2023-07-20T06:29:03;7.10;;;5.13;;
73980;SDS011;62348;51.412;5.436;2023-07-20T06:31:28;7.20;;;5.30;;
73980;SDS011;62348;51.412;5.436;2023-07-20T06:33:53;5.28;;;4.55;;
73980;SDS011;62348;51.412;5.436;2023-07-20T06:36:19;4.00;;;3.70;;
73980;SDS011;62348;51.412;5.436;2023-07-20T06:38:44;5.20;;;3.40;;
73980;SDS011;62348;51.412;5.436;2023-07-20T06:41:10;2.50;;;2.30;;
73980;SDS011;62348;51.412;5.436;2023-07-20T06:43:35;3.38;;;1.55;;
73980;SDS011;62348;51.412;5.436;2023-07-20T06:46:00;1.50;;;1.40;;
73980;SDS011;62348;51.412;5.436;2023-07-20T06:48:26;2.40;;;1.23;;
73980;SDS011;62348;51.412;5.436;2023-07-20T06:50:51;1.38;;;1.05;;
73980;SDS011;62348;51.412;5.436;2023-07-20T06:53:17;2.65;;;1.40;;
73980;SDS011;62348;51.412;5.436;2023-07-20T06:55:42;2.22;;;1.10;;
73980;SDS011;62348;51.412;5.436;2023-07-20T06:58:08;2.42;;;1.10;;
73980;SDS011;62348;51.412;5.436;2023-07-20T07:00:34;4.75;;;1.48;;
73980;SDS011;62348;51.412;5.436;2023-07-20T07:02:59;2.83;;;1.60;;
73980;SDS011;62348;51.412;5.436;2023-07-20T07:05:25;3.10;;;1.80;;
73980;SDS011;62348;51.412;5.436;2023-07-20T07:07:50;3.92;;;2.17;;
73980;SDS011;62348;51.412;5.436;2023-07-20T07:10:16;2.55;;;1.75;;
73980;SDS011;62348;51.412;5.436;2023-07-20T07:12:41;3.38;;;1.80;;
73980;SDS011;62348;51.412;5.436;2023-07-20T07:15:07;3.55;;;2.70;;
73980;SDS011;62348;51.412;5.436;2023-07-20T07:17:33;3.95;;;2.42;;
73980;SDS011;62348;51.412;5.436;2023-07-20T07:19:58;2.38;;;2.17;;
73980;SDS011;62348;51.412;5.436;2023-07-20T07:22:23;5.00;;;2.42;;
73980;SDS011;62348;51.412;5.436;2023-07-20T07:24:49;3.35;;;2.13;;
73980;SDS011;62348;51.412;5.436;2023-07-20T07:27:15;3.35;;;1.90;;
73980;SDS011;62348;51.412;5.436;2023-07-20T07:29:41;3.90;;;1.85;;
73980;SDS011;62348;51.412;5.436;2023-07-20T07:32:09;1.90;;;1.70;;
73980;SDS011;62348;51.412;5.436;2023-07-20T07:34:36;2.08;;;1.75;;
73980;SDS011;62348;51.412;5.436;2023-07-20T07:37:01;3.88;;;1.98;;
73980;SDS011;62348;51.412;5.436;2023-07-20T07:39:27;2.15;;;1.60;;
73980;SDS011;62348;51.412;5.436;2023-07-20T07:41:55;1.95;;;1.40;;
73980;SDS011;62348;51.412;5.436;2023-07-20T07:44:20;1.20;;;1.10;;
73980;SDS011;62348;51.412;5.436;2023-07-20T07:46:46;2.20;;;1.55;;
73980;SDS011;62348;51.412;5.436;2023-07-20T07:49:11;3.00;;;1.45;;
73980;SDS011;62348;51.412;5.436;2023-07-20T07:51:37;1.60;;;1.10;;
73980;SDS011;62348;51.412;5.436;2023-07-20T07:54:02;1.85;;;1.10;;
73980;SDS011;62348;51.412;5.436;2023-07-20T07:56:29;2.22;;;0.93;;
73980;SDS011;62348;51.412;5.436;2023-07-20T07:58:54;1.23;;;1.10;;
73980;SDS011;62348;51.412;5.436;2023-07-20T08:01:20;1.58;;;1.48;;
73980;SDS011;62348;51.412;5.436;2023-07-20T08:03:45;1.83;;;1.02;;
73980;SDS011;62348;51.412;5.436;2023-07-20T08:06:13;0.90;;;0.90;;
73980;SDS011;62348;51.412;5.436;2023-07-20T08:08:39;1.42;;;0.60;;
73980;SDS011;62348;51.412;5.436;2023-07-20T08:11:05;1.48;;;1.38;;
73980;SDS011;62348;51.412;5.436;2023-07-20T08:13:30;1.55;;;1.45;;
73980;SDS011;62348;51.412;5.436;2023-07-20T08:15:56;3.15;;;1.40;;
73980;SDS011;62348;51.412;5.436;2023-07-20T08:18:22;1.73;;;0.95;;
73980;SDS011;62348;51.412;5.436;2023-07-20T08:20:47;1.73;;;0.95;;
73980;SDS011;62348;51.412;5.436;2023-07-20T08:23:14;1.05;;;0.95;;
73980;SDS011;62348;51.412;5.436;2023-07-20T08:25:39;3.25;;;1.17;;
73980;SDS011;62348;51.412;5.436;2023-07-20T08:28:09;0.98;;;0.80;;
73980;SDS011;62348;51.412;5.436;2023-07-20T08:30:44;1.67;;;1.08;;
73980;SDS011;62348;51.412;5.436;2023-07-20T08:33:12;1.23;;;0.85;;
73980;SDS011;62348;51.412;5.436;2023-07-20T08:35:38;1.10;;;0.85;;
73980;SDS011;62348;51.412;5.436;2023-07-20T08:38:04;1.98;;;1.45;;
73980;SDS011;62348;51.412;5.436;2023-07-20T08:40:32;1.00;;;0.85;;
73980;SDS011;62348;51.412;5.436;2023-07-20T08:42:59;1.08;;;0.70;;
73980;SDS011;62348;51.412;5.436;2023-07-20T08:45:25;1.60;;;0.90;;
73980;SDS011;62348;51.412;5.436;2023-07-20T08:47:54;1.63;;;1.13;;
73980;SDS011;62348;51.412;5.436;2023-07-20T08:50:21;1.85;;;0.98;;
73980;SDS011;62348;51.412;5.436;2023-07-20T08:52:47;0.60;;;0.60;;
73980;SDS011;62348;51.412;5.436;2023-07-20T08:55:16;1.20;;;1.05;;
73980;SDS011;62348;51.412;5.436;2023-07-20T08:57:41;2.15;;;1.10;;
73980;SDS011;62348;51.412;5.436;2023-07-20T09:00:11;1.20;;;0.68;;
73980;SDS011;62348;51.412;5.436;2023-07-20T09:02:39;1.55;;;0.50;;
73980;SDS011;62348;51.412;5.436;2023-07-20T09:05:08;0.75;;;0.55;;
73980;SDS011;62348;51.412;5.436;2023-07-20T09:07:35;0.63;;;0.63;;
73980;SDS011;62348;51.412;5.436;2023-07-20T09:10:02;0.77;;;0.50;;
73980;SDS011;62348;51.412;5.436;2023-07-20T09:12:40;2.33;;;0.68;;
73980;SDS011;62348;51.412;5.436;2023-07-20T09:15:07;0.73;;;0.55;;
73980;SDS011;62348;51.412;5.436;2023-07-20T09:17:34;0.93;;;0.50;;
73980;SDS011;62348;51.412;5.436;2023-07-20T09:20:03;1.05;;;0.70;;
73980;SDS011;62348;51.412;5.436;2023-07-20T09:22:33;1.30;;;0.88;;
73980;SDS011;62348;51.412;5.436;2023-07-20T09:24:59;0.90;;;0.45;;
73980;SDS011;62348;51.412;5.436;2023-07-20T09:27:43;0.40;;;0.40;;
73980;SDS011;62348;51.412;5.436;2023-07-20T09:30:10;1.17;;;0.80;;
73980;SDS011;62348;51.412;5.436;2023-07-20T09:32:47;0.55;;;0.43;;
73980;SDS011;62348;51.412;5.436;2023-07-20T09:35:19;1.27;;;0.60;;
73980;SDS011;62348;51.412;5.436;2023-07-20T09:37:58;1.70;;;0.90;;
73980;SDS011;62348;51.412;5.436;2023-07-20T09:40:25;1.23;;;0.73;;
73980;SDS011;62348;51.412;5.436;2023-07-20T09:42:53;1.70;;;0.80;;
73980;SDS011;62348;51.412;5.436;2023-07-20T09:45:35;1.05;;;0.60;;
73980;SDS011;62348;51.412;5.436;2023-07-20T09:48:04;1.67;;;0.52;;
73980;SDS011;62348;51.412;5.436;2023-07-20T09:50:31;0.80;;;0.70;;
73980;SDS011;62348;51.412;5.436;2023-07-20T09:52:57;2.15;;;0.85;;
73980;SDS011;62348;51.412;5.436;2023-07-20T09:55:25;1.40;;;0.77;;
73980;SDS011;62348;51.412;5.436;2023-07-20T09:57:52;2.20;;;0.95;;
73980;SDS011;62348;51.412;5.436;2023-07-20T10:00:18;1.63;;;1.00;;
73980;SDS011;62348;51.412;5.436;2023-07-20T10:02:45;1.33;;;0.70;;
73980;SDS011;62348;51.412;5.436;2023-07-20T10:05:12;0.60;;;0.60;;
73980;SDS011;62348;51.412;5.436;2023-07-20T10:07:40;1.15;;;0.93;;
73980;SDS011;62348;51.412;5.436;2023-07-20T10:10:10;1.05;;;0.80;;
73980;SDS011;62348;51.412;5.436;2023-07-20T10:12:36;0.93;;;0.90;;
73980;SDS011;62348;51.412;5.436;2023-07-20T10:15:08;2.15;;;0.90;;
73980;SDS011;62348;51.412;5.436;2023-07-20T10:17:42;1.10;;;0.80;;
73980;SDS011;62348;51.412;5.436;2023-07-20T10:20:15;0.98;;;0.90;;
73980;SDS011;62348;51.412;5.436;2023-07-20T10:22:41;4.88;;;1.25;;
73980;SDS011;62348;51.412;5.436;2023-07-20T10:25:08;0.60;;;0.60;;
73980;SDS011;62348;51.412;5.436;2023-07-20T10:27:34;4.10;;;0.80;;
73980;SDS011;62348;51.412;5.436;2023-07-20T10:30:00;1.48;;;0.50;;
73980;SDS011;62348;51.412;5.436;2023-07-20T10:32:27;1.30;;;1.00;;
73980;SDS011;62348;51.412;5.436;2023-07-20T10:34:55;0.60;;;0.60;;
73980;SDS011;62348;51.412;5.436;2023-07-20T10:40:25;2.15;;;0.60;;
73980;SDS011;62348;51.412;5.436;2023-07-20T10:43:05;1.23;;;0.60;;
73980;SDS011;62348;51.412;5.436;2023-07-20T10:48:02;1.10;;;0.75;;
73980;SDS011;62348;51.412;5.436;2023-07-20T10:50:29;2.00;;;0.70;;
73980;SDS011;62348;51.412;5.436;2023-07-20T10:53:05;0.60;;;0.60;;
73980;SDS011;62348;51.412;5.436;2023-07-20T10:55:36;1.92;;;0.63;;
73980;SDS011;62348;51.412;5.436;2023-07-20T10:58:11;0.50;;;0.50;;
73980;SDS011;62348;51.412;5.436;2023-07-20T11:00:56;1.10;;;0.75;;
73980;SDS011;62348;51.412;5.436;2023-07-20T11:03:28;1.50;;;0.60;;
73980;SDS011;62348;51.412;5.436;2023-07-20T11:05:54;2.03;;;1.02;;
73980;SDS011;62348;51.412;5.436;2023-07-20T11:08:40;4.03;;;1.10;;
73980;SDS011;62348;51.412;5.436;2023-07-20T11:14:01;0.80;;;0.80;;
73980;SDS011;62348;51.412;5.436;2023-07-20T11:16:32;0.77;;;0.70;;
73980;SDS011;62348;51.412;5.436;2023-07-20T11:18:59;2.15;;;0.70;;
73980;SDS011;62348;51.412;5.436;2023-07-20T11:21:24;2.05;;;1.08;;
73980;SDS011;62348;51.412;5.436;2023-07-20T11:23:50;1.10;;;0.75;;
73980;SDS011;62348;51.412;5.436;2023-07-20T11:26:17;1.17;;;0.80;;
73980;SDS011;62348;51.412;5.436;2023-07-20T11:28:48;0.68;;;0.68;;
73980;SDS011;62348;51.412;5.436;2023-07-20T11:31:14;1.58;;;0.82;;
73980;SDS011;62348;51.412;5.436;2023-07-20T11:33:41;3.05;;;1.00;;
73980;SDS011;62348;51.412;5.436;2023-07-20T11:36:08;0.90;;;0.60;;
73980;SDS011;62348;51.412;5.436;2023-07-20T11:38:34;2.55;;;0.70;;
73980;SDS011;62348;51.412;5.436;2023-07-20T11:40:59;1.95;;;0.63;;
73980;SDS011;62348;51.412;5.436;2023-07-20T11:43:25;0.82;;;0.60;;
73980;SDS011;62348;51.412;5.436;2023-07-20T11:45:51;2.35;;;0.98;;
73980;SDS011;62348;51.412;5.436;2023-07-20T11:48:16;3.53;;;1.20;;
73980;SDS011;62348;51.412;5.436;2023-07-20T11:50:42;1.33;;;0.73;;
73980;SDS011;62348;51.412;5.436;2023-07-20T11:53:08;1.65;;;0.85;;
73980;SDS011;62348;51.412;5.436;2023-07-20T11:55:34;1.42;;;0.90;;
73980;SDS011;62348;51.412;5.436;2023-07-20T11:58:06;1.55;;;0.90;;
73980;SDS011;62348;51.412;5.436;2023-07-20T12:00:32;1.65;;;0.90;;
73980;SDS011;62348;51.412;5.436;2023-07-20T12:02:58;2.75;;;0.70;;
73980;SDS011;62348;51.412;5.436;2023-07-20T12:05:24;1.75;;;0.80;;
73980;SDS011;62348;51.412;5.436;2023-07-20T12:07:51;2.03;;;0.63;;
73980;SDS011;62348;51.412;5.436;2023-07-20T12:10:22;3.63;;;0.90;;
73980;SDS011;62348;51.412;5.436;2023-07-20T12:15:21;0.73;;;0.60;;
73980;SDS011;62348;51.412;5.436;2023-07-20T12:17:50;1.13;;;0.50;;
73980;SDS011;62348;51.412;5.436;2023-07-20T12:20:30;0.60;;;0.60;;
73980;SDS011;62348;51.412;5.436;2023-07-20T12:23:03;1.05;;;0.60;;
73980;SDS011;62348;51.412;5.436;2023-07-20T12:25:42;0.70;;;0.70;;
73980;SDS011;62348;51.412;5.436;2023-07-20T12:28:10;2.58;;;0.98;;
73980;SDS011;62348;51.412;5.436;2023-07-20T12:30:38;0.70;;;0.70;;
73980;SDS011;62348;51.412;5.436;2023-07-20T12:33:05;2.38;;;0.70;;
73980;SDS011;62348;51.412;5.436;2023-07-20T12:35:31;1.23;;;0.50;;
73980;SDS011;62348;51.412;5.436;2023-07-20T12:37:57;1.13;;;0.65;;
73980;SDS011;62348;51.412;5.436;2023-07-20T12:40:23;0.80;;;0.60;;
73980;SDS011;62348;51.412;5.436;2023-07-20T12:42:49;2.50;;;0.60;;
73980;SDS011;62348;51.412;5.436;2023-07-20T12:45:14;1.50;;;0.60;;
73980;SDS011;62348;51.412;5.436;2023-07-20T12:47:40;2.60;;;0.70;;
73980;SDS011;62348;51.412;5.436;2023-07-20T12:50:08;3.88;;;0.80;;
73980;SDS011;62348;51.412;5.436;2023-07-20T12:52:37;1.48;;;1.10;;
73980;SDS011;62348;51.412;5.436;2023-07-20T12:55:07;1.05;;;1.00;;
73980;SDS011;62348;51.412;5.436;2023-07-20T12:57:34;1.83;;;1.48;;
73980;SDS011;62348;51.412;5.436;2023-07-20T13:00:00;1.88;;;1.48;;
73980;SDS011;62348;51.412;5.436;2023-07-20T13:02:29;5.57;;;1.65;;
73980;SDS011;62348;51.412;5.436;2023-07-20T13:04:55;3.70;;;1.80;;
73980;SDS011;62348;51.412;5.436;2023-07-20T13:07:28;2.45;;;1.20;;
73980;SDS011;62348;51.412;5.436;2023-07-20T13:09:55;0.93;;;0.90;;
73980;SDS011;62348;51.412;5.436;2023-07-20T13:12:21;3.22;;;1.23;;
73980;SDS011;62348;51.412;5.436;2023-07-20T13:14:46;1.55;;;1.20;;
73980;SDS011;62348;51.412;5.436;2023-07-20T13:17:12;2.90;;;1.75;;
73980;SDS011;62348;51.412;5.436;2023-07-20T13:19:37;4.38;;;1.65;;
73980;SDS011;62348;51.412;5.436;2023-07-20T13:22:02;1.02;;;1.00;;
73980;SDS011;62348;51.412;5.436;2023-07-20T13:24:28;2.47;;;0.88;;
73980;SDS011;62348;51.412;5.436;2023-07-20T13:26:53;2.97;;;1.05;;
73980;SDS011;62348;51.412;5.436;2023-07-20T13:29:19;1.52;;;1.17;;
73980;SDS011;62348;51.412;5.436;2023-07-20T13:31:44;1.48;;;1.20;;
73980;SDS011;62348;51.412;5.436;2023-07-20T13:34:09;1.17;;;1.08;;
73980;SDS011;62348;51.412;5.436;2023-07-20T13:36:35;1.10;;;1.10;;
73980;SDS011;62348;51.412;5.436;2023-07-20T13:39:00;1.20;;;1.10;;
73980;SDS011;62348;51.412;5.436;2023-07-20T13:41:25;1.60;;;1.35;;
73980;SDS011;62348;51.412;5.436;2023-07-20T13:43:51;1.25;;;1.17;;
73980;SDS011;62348;51.412;5.436;2023-07-20T13:46:16;1.63;;;1.10;;
73980;SDS011;62348;51.412;5.436;2023-07-20T13:48:42;1.27;;;1.15;;
73980;SDS011;62348;51.412;5.436;2023-07-20T13:51:07;1.80;;;1.70;;
73980;SDS011;62348;51.412;5.436;2023-07-20T13:53:32;3.05;;;1.50;;
73980;SDS011;62348;51.412;5.436;2023-07-20T13:55:58;1.30;;;1.20;;
73980;SDS011;62348;51.412;5.436;2023-07-20T13:58:24;1.33;;;1.23;;
73980;SDS011;62348;51.412;5.436;2023-07-20T14:00:50;1.92;;;1.40;;
73980;SDS011;62348;51.412;5.436;2023-07-20T14:03:15;2.00;;;1.50;;
73980;SDS011;62348;51.412;5.436;2023-07-20T14:05:41;1.50;;;1.38;;
73980;SDS011;62348;51.412;5.436;2023-07-20T14:08:08;1.85;;;1.20;;
73980;SDS011;62348;51.412;5.436;2023-07-20T14:10:34;2.13;;;1.70;;
73980;SDS011;62348;51.412;5.436;2023-07-20T14:12:59;1.70;;;1.60;;
73980;SDS011;62348;51.412;5.436;2023-07-20T14:15:24;1.35;;;1.23;;
73980;SDS011;62348;51.412;5.436;2023-07-20T14:17:50;2.92;;;1.38;;
73980;SDS011;62348;51.412;5.436;2023-07-20T14:20:15;1.42;;;1.33;;
73980;SDS011;62348;51.412;5.436;2023-07-20T14:22:41;1.45;;;1.30;;
73980;SDS011;62348;51.412;5.436;2023-07-20T14:25:07;1.52;;;1.42;;
73980;SDS011;62348;51.412;5.436;2023-07-20T14:27:32;3.42;;;1.88;;
73980;SDS011;62348;51.412;5.436;2023-07-20T14:29:58;1.92;;;1.60;;
73980;SDS011;62348;51.412;5.436;2023-07-20T14:32:23;1.30;;;1.20;;
73980;SDS011;62348;51.412;5.436;2023-07-20T14:34:49;2.88;;;1.20;;
73980;SDS011;62348;51.412;5.436;2023-07-20T14:37:14;3.33;;;1.20;;
73980;SDS011;62348;51.412;5.436;2023-07-20T14:39:40;2.58;;;1.35;;
73980;SDS011;62348;51.412;5.436;2023-07-20T14:42:05;1.38;;;1.27;;
73980;SDS011;62348;51.412;5.436;2023-07-20T14:44:32;2.05;;;1.25;;
73980;SDS011;62348;51.412;5.436;2023-07-20T14:46:58;2.40;;;1.40;;
73980;SDS011;62348;51.412;5.436;2023-07-20T14:49:25;1.92;;;1.38;;
73980;SDS011;62348;51.412;5.436;2023-07-20T14:51:51;1.55;;;1.20;;
73980;SDS011;62348;51.412;5.436;2023-07-20T14:54:18;5.22;;;1.48;;
73980;SDS011;62348;51.412;5.436;2023-07-20T14:56:50;1.42;;;1.33;;
73980;SDS011;62348;51.412;5.436;2023-07-20T14:59:17;2.85;;;1.40;;
73980;SDS011;62348;51.412;5.436;2023-07-20T15:01:43;1.98;;;1.77;;